Time;durP1;ratioP1;P1;durP2;ratioP2;P2;SDS_P1;SDS_P2;PMS_P1;PMS_P2;Temp;Humidity;BMP_temperature;BMP_pressure;BME280_temperature;BME280_humidity;BME280_pressure;Samples;Min_cycle;Max_cycle;Signal;HPM_P1;HPM_P2
2023/01/30 00:01:29;;;;;;;4.43;2.13;;;8.60;99.90;;;8.87;54.01;101585.72;4866542;28;97566;-47
2023/01/30 00:03:56;;;;;;;6.13;3.07;;;9.10;99.90;;;8.82;54.55;101574.34;4903675;28;97596;-46
2023/01/30 00:06:22;;;;;;;5.80;2.87;;;9.10;99.90;;;8.92;54.54;101568.09;4867712;28;97885;-53
2023/01/30 00:08:48;;;;;;;6.43;3.13;;;9.30;99.90;;;9.13;53.04;101561.66;4870425;28;97644;-51
2023/01/30 00:11:16;;;;;;;4.17;2.70;;;9.30;99.90;;;9.15;53.12;101537.94;4868087;28;119064;-46
2023/01/30 00:13:42;;;;;;;7.47;3.37;;;9.30;99.90;;;8.86;56.46;101543.63;4869517;28;98698;-47
2023/01/30 00:16:08;;;;;;;7.47;3.27;;;9.10;99.90;;;8.81;55.50;101534.91;4877069;28;98116;-46
2023/01/30 00:18:36;;;;;;;8.13;3.30;;;8.90;99.90;;;8.76;56.58;101537.63;4858894;28;98605;-45
2023/01/30 00:21:05;;;;;;;4.70;2.57;;;8.90;99.90;;;8.91;55.23;101531.28;4871516;28;100341;-44
2023/01/30 00:23:33;;;;;;;6.73;2.50;;;9.00;99.90;;;8.94;54.87;101547.00;4867182;28;98441;-41
2023/01/30 00:25:59;;;;;;;10.63;2.40;;;9.00;99.90;;;9.08;55.64;101550.31;4869583;28;97336;-42
2023/01/30 00:28:27;;;;;;;5.80;2.73;;;9.20;99.90;;;9.04;54.83;101546.00;4861668;28;104060;-43
2023/01/30 00:30:55;;;;;;;6.43;3.47;;;9.10;99.90;;;9.22;55.06;101524.63;4868019;28;99116;-45
2023/01/30 00:33:24;;;;;;;5.80;2.97;;;9.30;99.90;;;9.46;52.58;101527.75;4861637;28;101032;-44
2023/01/30 00:35:56;;;;;;;6.70;3.30;;;9.50;99.90;;;9.21;56.02;101512.38;4875212;28;103994;-45
2023/01/30 00:38:32;;;;;;;5.60;2.40;;;9.40;99.90;;;9.23;54.00;101515.84;4867581;28;97750;-43
2023/01/30 00:41:09;;;;;;;5.33;3.47;;;9.30;99.90;;;9.28;55.37;101522.81;4834814;28;97503;-43
2023/01/30 00:49:23;;;;;;;6.57;2.97;;;9.60;99.90;;;9.49;54.61;101517.16;4808693;28;97512;-45
2023/01/30 00:51:50;;;;;;;4.03;2.73;;;9.70;99.90;;;9.52;53.72;101506.56;4862167;28;99327;-44
2023/01/30 00:54:19;;;;;;;7.70;4.27;;;9.70;99.90;;;9.23;55.75;101494.78;4829304;28;99625;-42
2023/01/30 00:56:47;;;;;;;6.20;2.60;;;9.50;99.90;;;9.13;56.22;101497.63;4865238;28;98079;-45
2023/01/30 00:59:13;;;;;;;9.60;3.80;;;9.30;99.90;;;9.16;54.48;101493.16;4850676;28;99940;-41
2023/01/30 01:01:39;;;;;;;6.03;3.00;;;9.30;99.90;;;8.99;57.07;101478.53;4850349;28;97598;-43
2023/01/30 01:04:07;;;;;;;5.97;2.87;;;9.20;99.90;;;8.91;57.10;101465.50;4885028;28;97769;-44
2023/01/30 01:06:36;;;;;;;9.87;3.60;;;9.00;99.90;;;8.73;57.47;101456.13;4840702;28;97582;-45
2023/01/30 01:09:04;;;;;;;11.97;3.60;;;8.80;99.90;;;8.87;56.77;101461.19;4892512;28;98226;-41
2023/01/30 01:11:29;;;;;;;3.47;2.50;;;9.00;99.90;;;8.73;56.27;101466.66;4859950;28;97885;-44
2023/01/30 01:14:02;;;;;;;7.83;2.73;;;8.80;99.90;;;8.72;56.46;101474.56;4865076;28;97483;-43
2023/01/30 01:16:29;;;;;;;8.13;3.43;;;8.70;99.90;;;8.90;55.06;101474.28;4856525;28;97608;-45
2023/01/30 01:18:55;;;;;;;6.83;2.83;;;9.00;99.90;;;8.96;55.65;101466.28;4859858;28;102367;-42
2023/01/30 01:21:21;;;;;;;9.87;3.87;;;9.20;99.90;;;9.10;55.30;101466.91;4856797;28;100750;-45
2023/01/30 01:23:58;;;;;;;7.47;3.27;;;9.30;99.90;;;9.09;56.32;101465.19;4870439;28;97447;-41
2023/01/30 01:26:30;;;;;;;5.10;3.23;;;9.30;99.90;;;8.99;56.98;101463.63;4850152;28;102134;-42
2023/01/30 01:28:57;;;;;;;7.63;2.50;;;9.20;99.90;;;9.34;53.54;101459.50;4866528;28;102279;-44
2023/01/30 01:31:24;;;;;;;7.53;3.40;;;9.50;99.90;;;9.46;53.12;101454.03;4862287;28;97806;-43
2023/01/30 01:33:50;;;;;;;6.37;2.90;;;9.60;99.90;;;9.44;54.48;101450.56;4862606;28;97709;-44
2023/01/30 01:36:16;;;;;;;6.47;3.47;;;9.70;99.90;;;9.48;55.35;101449.59;4863975;28;97670;-42
2023/01/30 01:38:42;;;;;;;7.77;2.87;;;9.80;99.90;;;9.43;56.02;101447.06;4856530;28;98775;-41
2023/01/30 01:41:11;;;;;;;8.60;3.13;;;9.60;99.90;;;9.33;56.51;101441.97;4881306;28;101307;-41
2023/01/30 01:44:08;;;;;;;9.60;3.30;;;9.50;99.90;;;9.31;55.39;101451.66;4865270;28;97826;-44
2023/01/30 01:46:49;;;;;;;7.53;3.53;;;9.40;99.90;;;9.37;55.15;101444.50;4896989;28;97591;-44
2023/01/30 01:49:28;;;;;;;7.20;3.87;;;9.60;99.90;;;9.29;55.59;101441.16;4895789;28;98733;-42
2023/01/30 01:52:04;;;;;;;8.37;3.53;;;9.50;99.90;;;9.57;53.35;101441.53;4901875;28;97384;-43
2023/01/30 01:54:36;;;;;;;8.30;2.83;;;9.70;99.90;;;9.59;53.58;101439.72;4900525;28;97192;-44
2023/01/30 01:57:14;;;;;;;6.63;3.07;;;9.80;99.90;;;9.45;55.38;101431.22;4901958;28;97575;-41
2023/01/30 01:59:50;;;;;;;6.07;3.33;;;9.70;99.90;;;9.66;53.71;101425.53;4897936;28;103172;-42
2023/01/30 02:02:16;;;;;;;7.87;2.93;;;9.90;99.90;;;9.57;54.71;101431.00;4901629;28;97236;-42
2023/01/30 02:05:02;;;;;;;5.63;2.57;;;9.80;99.90;;;9.62;54.08;101418.59;4902019;28;109909;-45
2023/01/30 02:07:46;;;;;;;7.10;3.23;;;9.70;99.90;;;9.56;54.45;101424.00;4898229;28;97341;-49
2023/01/30 02:10:23;;;;;;;7.70;3.33;;;9.60;99.90;;;9.48;55.04;101420.63;4909783;28;97724;-42
2023/01/30 02:12:50;;;;;;;6.83;3.00;;;9.60;99.90;;;9.44;54.76;101413.69;4901580;28;97774;-41
2023/01/30 02:15:17;;;;;;;7.10;3.43;;;9.60;99.90;;;9.56;54.39;101407.31;4898203;28;97333;-41
2023/01/30 02:17:43;;;;;;;7.93;2.73;;;9.80;99.90;;;9.50;55.12;101405.66;4895178;28;97741;-41
2023/01/30 02:20:58;;;;;;;6.27;2.90;;;9.60;99.90;;;9.58;54.97;101390.59;4902888;28;114763;-42
2023/01/30 02:24:08;;;;;;;6.13;2.50;;;9.70;99.90;;;9.72;53.55;101382.41;4897255;28;100544;-43
2023/01/30 02:26:52;;;;;;;11.73;3.33;;;9.90;99.90;;;9.80;53.07;101381.31;4891947;28;97819;-43
2023/01/30 02:29:45;;;;;;;3.27;2.10;;;10.00;99.90;;;9.99;52.47;101375.69;4898887;28;98286;-42
2023/01/30 02:32:35;;;;;;;4.67;2.40;;;10.20;99.90;;;9.86;54.03;101374.22;4896483;28;98606;-42
2023/01/30 02:35:12;;;;;;;4.97;2.33;;;10.20;99.90;;;9.92;53.44;101374.06;4903727;28;98831;-43
2023/01/30 02:38:02;;;;;;;6.77;2.90;;;10.20;99.90;;;10.07;51.61;101353.50;4896368;28;97657;-41
2023/01/30 02:41:14;;;;;;;6.80;2.43;;;10.20;99.90;;;9.95;52.91;101363.44;4902428;28;98675;-42
2023/01/30 02:44:04;;;;;;;4.87;2.33;;;10.30;99.90;;;9.86;54.35;101353.13;4913965;28;102800;-41
2023/01/30 02:46:53;;;;;;;6.40;3.17;;;10.20;99.90;;;9.99;53.15;101351.97;4885034;28;97676;-41
2023/01/30 02:49:29;;;;;;;7.27;2.30;;;10.30;99.90;;;10.09;52.88;101350.84;4889362;28;97193;-42
2023/01/30 02:51:59;;;;;;;7.83;3.07;;;10.50;99.90;;;10.03;54.54;101340.44;4899873;28;97389;-42
2023/01/30 02:54:24;;;;;;;4.97;2.83;;;10.40;99.90;;;10.02;52.75;101334.31;4900243;28;97408;-42
2023/01/30 02:57:05;;;;;;;3.43;2.00;;;10.30;99.90;;;9.96;53.25;101323.88;4899590;28;97553;-43
2023/01/30 02:59:37;;;;;;;5.00;3.00;;;10.20;99.90;;;10.14;52.18;101327.88;4890793;28;97125;-42
2023/01/30 03:02:38;;;;;;;8.87;3.10;;;10.50;99.90;;;10.18;52.10;101313.72;4907372;28;97093;-43
2023/01/30 03:05:36;;;;;;;7.27;2.87;;;10.40;99.90;;;9.92;54.50;101321.34;4899945;28;101996;-49
2023/01/30 03:08:29;;;;;;;6.23;2.87;;;10.20;99.90;;;9.63;55.17;101309.69;4914803;28;98125;-42
2023/01/30 03:11:06;;;;;;;5.03;2.40;;;9.90;99.90;;;9.62;55.50;101305.31;4913766;28;97482;-41
2023/01/30 03:13:47;;;;;;;5.47;2.57;;;9.90;99.90;;;9.81;54.06;101304.00;4899410;28;97456;-47
2023/01/30 03:16:18;;;;;;;4.30;2.53;;;10.10;99.90;;;9.87;53.60;101299.53;4910752;28;97392;-48
2023/01/30 03:18:45;;;;;;;4.97;2.83;;;10.20;99.90;;;9.84;53.20;101300.47;4898979;28;97336;-48
2023/01/30 03:21:14;;;;;;;6.53;3.07;;;10.20;99.90;;;9.70;54.58;101297.25;4910145;28;97187;-50
2023/01/30 03:23:40;;;;;;;5.40;2.83;;;10.00;99.90;;;9.69;55.16;101299.03;4896304;28;100612;-47
2023/01/30 03:26:13;;;;;;;5.27;2.37;;;10.00;99.90;;;9.59;55.68;101297.50;4899924;28;97487;-49
2023/01/30 03:28:40;;;;;;;4.77;2.40;;;9.90;99.90;;;9.53;55.31;101298.47;4911575;28;97099;-44
2023/01/30 03:31:07;;;;;;;6.40;3.30;;;9.90;99.90;;;9.70;54.41;101290.22;4900655;28;97487;-47
2023/01/30 03:33:33;;;;;;;4.17;2.53;;;10.00;99.90;;;9.49;56.35;101296.81;4896828;28;97490;-48
2023/01/30 03:35:59;;;;;;;4.70;2.60;;;9.90;99.90;;;9.60;55.33;101291.31;4903037;28;97079;-45
2023/01/30 03:38:25;;;;;;;6.53;3.70;;;9.90;99.90;;;9.57;55.62;101296.66;4896307;28;97523;-46
2023/01/30 03:40:50;;;;;;;5.30;3.00;;;10.00;99.90;;;9.61;55.77;101290.41;4839217;28;106830;-47
2023/01/30 03:43:16;;;;;;;5.30;2.50;;;10.00;99.90;;;9.61;56.04;101285.16;4903757;28;99598;-47
2023/01/30 03:45:42;;;;;;;8.13;2.93;;;10.20;99.90;;;9.64;56.02;101285.06;4908362;28;101028;-49
2023/01/30 03:48:08;;;;;;;4.77;3.03;;;10.00;99.90;;;9.85;53.86;101273.22;4907558;28;97139;-49
2023/01/30 03:50:34;;;;;;;6.03;2.43;;;10.20;99.90;;;9.73;55.98;101263.81;4906535;28;97215;-44
2023/01/30 03:53:00;;;;;;;10.57;2.67;;;10.20;99.90;;;9.72;56.19;101264.72;4906715;28;98011;-42
2023/01/30 03:55:25;;;;;;;7.27;2.67;;;10.10;99.90;;;9.83;54.91;101262.66;4905422;28;97513;-44
2023/01/30 03:57:56;;;;;;;3.47;1.83;;;10.10;99.90;;;9.97;54.16;101265.00;4908591;28;97178;-49
2023/01/30 04:00:22;;;;;;;4.83;2.83;;;10.30;99.90;;;9.92;54.72;101256.34;4905409;28;98408;-46
2023/01/30 04:02:49;;;;;;;5.17;2.23;;;10.30;99.90;;;10.10;53.09;101247.13;4909129;28;98555;-45
2023/01/30 04:05:15;;;;;;;4.37;2.27;;;10.50;99.90;;;10.24;53.39;101252.94;4905960;28;97173;-42
2023/01/30 04:07:40;;;;;;;4.67;2.20;;;10.60;99.90;;;10.17;54.66;101245.22;4907567;28;96795;-45
2023/01/30 04:10:07;;;;;;;7.00;2.37;;;10.60;99.90;;;10.36;52.73;101228.91;4907382;28;97780;-45
2023/01/30 04:12:32;;;;;;;5.60;3.10;;;10.70;99.90;;;10.26;54.82;101216.84;4903213;28;97176;-44
2023/01/30 04:14:58;;;;;;;6.43;3.23;;;10.70;99.90;;;10.31;53.33;101220.28;4906164;28;109590;-45
2023/01/30 04:17:24;;;;;;;3.70;2.17;;;10.70;99.90;;;10.28;53.38;101215.09;4904529;28;97084;-43
2023/01/30 04:19:50;;;;;;;5.03;2.13;;;10.60;99.90;;;10.11;55.83;101217.22;4908674;28;98409;-47
2023/01/30 04:22:16;;;;;;;4.57;2.43;;;10.50;99.90;;;10.22;54.26;101217.84;4902849;28;107115;-43
2023/01/30 04:24:41;;;;;;;4.80;2.90;;;10.50;99.90;;;10.01;55.13;101210.47;4924111;28;102999;-47
2023/01/30 04:27:08;;;;;;;6.90;2.17;;;10.40;99.90;;;9.86;56.38;101226.66;4910842;28;96967;-49
2023/01/30 04:29:34;;;;;;;6.10;2.50;;;10.30;99.90;;;9.98;55.25;101221.06;4907700;28;97521;-45
2023/01/30 04:32:00;;;;;;;5.70;3.17;;;10.40;99.90;;;10.15;54.77;101229.44;4906884;28;105084;-48
2023/01/30 04:34:25;;;;;;;4.83;2.07;;;10.50;99.90;;;10.27;52.69;101223.91;4906343;28;97539;-46
2023/01/30 04:36:51;;;;;;;3.67;1.77;;;10.60;99.90;;;10.05;54.86;101222.66;4908972;28;99679;-45
2023/01/30 04:39:17;;;;;;;6.00;2.47;;;10.50;99.90;;;9.99;56.17;101220.19;4905814;28;97416;-45
2023/01/30 04:41:43;;;;;;;4.50;2.63;;;10.40;99.90;;;9.83;56.38;101220.50;4903720;28;97339;-46
2023/01/30 04:44:08;;;;;;;2.17;1.53;;;10.30;99.90;;;9.99;54.05;101217.53;4906559;28;102881;-45
2023/01/30 04:46:34;;;;;;;3.33;1.50;;;10.30;99.90;;;10.05;54.60;101218.25;4905976;28;97143;-45
2023/01/30 04:49:00;;;;;;;4.97;2.30;;;10.40;99.90;;;9.97;55.96;101208.78;4905958;28;97508;-46
2023/01/30 04:51:26;;;;;;;4.80;2.20;;;10.40;99.90;;;9.91;55.95;101206.31;4902357;28;99376;-45
2023/01/30 04:53:51;;;;;;;4.77;2.80;;;10.30;99.90;;;9.81;56.84;101203.88;4909199;28;104187;-48
2023/01/30 04:56:17;;;;;;;3.93;1.47;;;10.20;99.90;;;9.94;55.11;101214.13;4905468;28;97275;-44
2023/01/30 04:58:43;;;;;;;4.33;2.47;;;10.40;99.90;;;9.90;56.80;101212.47;4908885;28;96972;-47
2023/01/30 05:01:38;;;;;;;5.60;2.83;;;10.50;99.90;;;10.03;55.93;101203.38;4907762;28;97499;-47
2023/01/30 05:04:07;;;;;;;5.73;2.70;;;10.60;99.90;;;9.97;56.16;101203.50;4904966;28;103239;-49
2023/01/30 05:06:34;;;;;;;6.73;3.10;;;10.30;99.90;;;9.99;56.50;101207.00;4902607;28;96838;-47
2023/01/30 05:09:00;;;;;;;5.07;2.27;;;10.40;99.90;;;10.22;53.70;101194.13;4906765;28;97347;-47
2023/01/30 05:11:28;;;;;;;6.10;2.87;;;10.60;99.90;;;10.00;57.32;101198.19;4900852;28;103108;-45
2023/01/30 05:13:54;;;;;;;3.20;1.93;;;10.50;99.90;;;9.90;56.96;101191.41;4948756;22;98399;-56
2023/01/30 05:16:22;;;;;;;5.37;2.57;;;10.20;99.90;;;9.99;55.48;101196.47;4956521;28;97198;-56
2023/01/30 05:18:48;;;;;;;7.40;3.43;;;10.30;99.90;;;10.00;55.87;101192.91;4967058;28;97372;-56
2023/01/30 05:21:27;;;;;;;4.20;3.13;;;10.30;99.90;;;9.97;56.45;101188.56;4948462;28;97683;-57
2023/01/30 05:23:55;;;;;;;4.53;2.17;;;10.40;99.90;;;10.03;55.08;101195.47;4966366;28;97460;-57
2023/01/30 05:26:22;;;;;;;6.27;2.63;;;10.40;99.90;;;10.08;55.68;101186.53;4952270;28;104299;-56
2023/01/30 05:28:56;;;;;;;4.40;2.27;;;10.50;99.90;;;10.17;56.21;101185.44;4956011;28;97721;-56
2023/01/30 05:31:22;;;;;;;9.67;3.03;;;10.60;99.90;;;9.89;58.29;101181.75;4969101;28;97172;-56
2023/01/30 05:33:51;;;;;;;3.27;2.07;;;10.40;99.90;;;10.03;58.14;101177.03;4976569;28;97570;-56
2023/01/30 05:36:20;;;;;;;3.90;1.97;;;10.50;99.90;;;10.18;54.64;101176.63;4948107;28;97221;-55
2023/01/30 05:38:45;;;;;;;6.00;2.70;;;10.50;99.90;;;10.17;57.89;101174.03;4966982;28;97440;-54
2023/01/30 05:41:14;;;;;;;7.50;2.23;;;10.60;99.90;;;10.36;54.00;101168.25;4971550;28;97411;-56
2023/01/30 05:43:39;;;;;;;5.87;2.37;;;10.70;99.90;;;10.26;56.71;101174.69;4976184;28;97463;-54
2023/01/30 05:46:06;;;;;;;4.37;1.67;;;10.70;99.90;;;10.24;56.18;101176.50;4954084;28;99952;-55
2023/01/30 05:48:33;;;;;;;3.90;2.27;;;10.60;99.90;;;10.12;57.70;101166.22;4954570;28;97620;-57
2023/01/30 05:50:59;;;;;;;5.37;2.57;;;10.60;99.90;;;9.99;59.95;101170.09;4970586;28;97478;-55
2023/01/30 05:53:33;;;;;;;6.93;2.70;;;10.50;99.90;;;9.96;59.31;101172.78;4967341;28;97591;-54
2023/01/30 05:56:04;;;;;;;4.67;2.60;;;10.40;99.90;;;9.93;57.37;101170.25;4972499;28;97274;-54
2023/01/30 05:58:31;;;;;;;6.27;2.27;;;10.40;99.90;;;9.86;60.04;101176.56;4963829;28;99075;-54
2023/01/30 06:01:04;;;;;;;5.23;1.97;;;10.40;99.90;;;9.75;60.66;101169.78;4973148;28;97439;-55
2023/01/30 06:03:30;;;;;;;5.57;2.10;;;10.30;99.90;;;9.49;61.57;101166.91;4955215;28;97015;-55
2023/01/30 06:05:56;;;;;;;4.93;2.30;;;10.10;99.90;;;9.63;60.60;101164.81;4974633;28;97298;-56
2023/01/30 06:08:22;;;;;;;1.80;1.23;;;10.20;99.90;;;9.87;57.11;101165.13;4969372;28;99897;-55
2023/01/30 06:10:49;;;;;;;3.33;1.70;;;10.30;99.90;;;9.96;58.90;101170.16;4958407;28;97662;-54
2023/01/30 06:13:15;;;;;;;3.97;1.73;;;10.50;99.90;;;9.95;57.93;101174.56;4968728;28;97246;-54
2023/01/30 06:15:40;;;;;;;3.17;1.87;;;10.40;99.90;;;9.84;60.33;101177.47;4970514;28;97097;-52
2023/01/30 06:18:06;;;;;;;3.13;2.00;;;10.40;99.90;;;9.93;58.40;101164.97;4972908;28;97816;-55
2023/01/30 06:20:32;;;;;;;3.10;1.20;;;10.40;99.90;;;9.93;58.47;101186.91;4970583;28;97240;-56
2023/01/30 06:22:57;;;;;;;5.83;1.90;;;10.40;99.90;;;9.89;59.37;101179.13;4976475;28;98251;-56
2023/01/30 06:25:23;;;;;;;2.93;1.73;;;10.40;99.90;;;9.93;60.08;101183.41;4960633;28;101345;-51
2023/01/30 06:27:49;;;;;;;2.57;1.87;;;10.50;99.90;;;9.82;61.46;101205.59;4974846;28;97502;-55
2023/01/30 06:30:15;;;;;;;4.57;1.87;;;10.40;99.90;;;9.79;61.16;101203.06;4976168;28;97449;-56
2023/01/30 06:32:41;;;;;;;4.07;1.87;;;10.40;99.90;;;9.69;59.04;101206.84;4972481;28;97191;-56
2023/01/30 06:35:08;;;;;;;2.60;1.47;;;10.30;99.90;;;9.49;63.03;101201.13;4968574;28;97158;-56
2023/01/30 06:37:33;;;;;;;6.47;1.73;;;10.10;99.90;;;9.55;60.83;101193.13;4975477;28;97603;-54
2023/01/30 06:39:59;;;;;;;3.43;1.97;;;10.10;99.90;;;9.41;63.65;101187.28;4954468;28;98867;-54
2023/01/30 06:42:25;;;;;;;1.80;1.30;;;10.00;99.90;;;9.64;59.38;101190.25;4971575;28;96879;-56
2023/01/30 06:44:51;;;;;;;3.50;1.50;;;10.10;99.90;;;9.46;63.39;101195.94;4972890;28;97053;-54
2023/01/30 06:47:16;;;;;;;3.33;2.00;;;10.00;99.90;;;9.60;61.30;101188.59;4962907;28;118410;-52
2023/01/30 06:49:42;;;;;;;3.63;1.67;;;10.10;99.90;;;9.41;64.04;101189.91;4969201;28;98729;-55
2023/01/30 06:52:08;;;;;;;2.33;1.63;;;10.10;99.90;;;9.52;61.12;101206.31;4979048;28;111462;-57
2023/01/30 06:54:34;;;;;;;2.03;1.30;;;10.00;99.90;;;9.31;65.07;101207.69;4970177;28;97168;-54
2023/01/30 06:57:00;;;;;;;3.50;1.73;;;9.90;99.90;;;9.25;62.19;101202.53;4975176;28;99772;-55
2023/01/30 06:59:26;;;;;;;1.90;1.23;;;9.80;99.90;;;8.97;66.75;101228.59;4968049;28;96935;-56
2023/01/30 07:01:51;;;;;;;2.43;1.63;;;9.70;99.90;;;8.84;68.04;101225.31;4979803;28;97273;-51
2023/01/30 07:04:17;;;;;;;1.40;1.30;;;9.40;99.90;;;8.86;68.16;101235.81;4967178;28;96799;-58
2023/01/30 07:06:43;;;;;;;3.33;1.33;;;9.40;99.90;;;8.95;67.66;101227.72;4974221;28;97272;-55
2023/01/30 07:09:09;;;;;;;3.20;1.47;;;9.40;99.90;;;9.19;65.08;101245.66;4972249;28;97686;-54
2023/01/30 07:11:34;;;;;;;5.90;2.20;;;9.60;99.90;;;9.22;65.83;101234.19;4978319;28;102489;-50
2023/01/30 07:14:00;;;;;;;4.43;2.13;;;9.70;99.90;;;9.42;64.46;101225.88;4972402;28;101395;-55
2023/01/30 07:16:28;;;;;;;3.67;2.03;;;9.90;99.90;;;9.27;66.30;101236.75;4969737;28;97647;-54
2023/01/30 07:18:57;;;;;;;5.00;2.27;;;9.80;99.90;;;9.31;66.11;101227.88;4975351;28;97184;-54
2023/01/30 07:21:26;;;;;;;3.00;1.53;;;9.80;99.90;;;9.21;67.22;101212.25;4954402;28;98146;-57
2023/01/30 07:23:52;;;;;;;1.97;1.10;;;9.70;99.90;;;9.17;67.23;101223.75;4982551;28;97169;-57
2023/01/30 07:26:18;;;;;;;3.23;1.80;;;9.70;99.90;;;9.24;66.63;101216.59;4976445;28;96693;-54
2023/01/30 07:28:44;;;;;;;1.87;1.53;;;9.70;99.90;;;9.27;66.25;101210.41;4971410;28;97267;-54
2023/01/30 07:31:10;;;;;;;4.53;2.10;;;9.70;99.90;;;9.44;64.54;101222.31;4974507;28;96752;-55
2023/01/30 07:33:36;;;;;;;2.60;1.87;;;9.80;99.90;;;9.71;60.21;101227.88;4965330;28;97425;-56
2023/01/30 07:36:01;;;;;;;1.87;1.30;;;10.10;99.90;;;9.90;62.54;101217.75;4969413;28;97062;-51
2023/01/30 07:38:27;;;;;;;2.43;1.57;;;10.30;99.90;;;9.80;63.11;101228.50;4949811;28;98475;-55
2023/01/30 07:40:56;;;;;;;1.87;1.20;;;10.30;99.90;;;9.87;62.24;101223.97;4971114;28;97486;-54
2023/01/30 07:43:22;;;;;;;2.30;1.57;;;10.30;99.90;;;9.89;62.93;101211.63;4967123;28;96959;-55
2023/01/30 07:45:48;;;;;;;3.17;2.10;;;10.30;99.90;;;9.94;60.75;101222.03;4971895;28;97178;-54
2023/01/30 07:48:17;;;;;;;4.13;1.70;;;10.30;99.90;;;10.18;60.27;101233.75;4961596;28;102826;-57
2023/01/30 07:50:44;;;;;;;3.33;1.13;;;10.60;99.90;;;10.40;57.85;101235.84;4955122;28;97513;-56
2023/01/30 07:53:14;;;;;;;3.13;1.37;;;10.80;99.90;;;10.50;59.05;101232.97;4975388;28;97124;-55
2023/01/30 07:55:40;;;;;;;1.57;1.10;;;10.90;99.90;;;10.57;58.10;101231.91;4968360;28;97467;-53
2023/01/30 07:58:06;;;;;;;1.93;1.23;;;10.90;99.90;;;10.67;56.00;101233.38;4965308;28;99031;-58
2023/01/30 08:00:33;;;;;;;1.40;1.10;;;11.00;99.90;;;10.71;58.85;101240.34;4969222;28;98460;-54
2023/01/30 08:02:59;;;;;;;3.70;1.50;;;11.10;99.90;;;10.50;59.32;101243.53;4966559;28;97270;-56
2023/01/30 08:05:25;;;;;;;2.83;1.30;;;10.90;99.90;;;10.62;59.95;101235.28;4951755;28;96856;-55
2023/01/30 08:07:51;;;;;;;2.90;1.50;;;11.00;99.90;;;10.76;58.76;101237.56;4954010;28;97996;-53
2023/01/30 08:10:17;;;;;;;2.00;1.27;;;11.20;99.90;;;10.84;57.64;101231.16;4967114;28;97621;-57
2023/01/30 08:12:43;;;;;;;1.00;0.90;;;11.30;99.90;;;10.81;57.68;101223.31;4972154;28;118032;-54
2023/01/30 08:15:10;;;;;;;1.77;1.33;;;11.20;99.90;;;10.82;58.31;101238.25;4972418;28;98110;-57
2023/01/30 08:17:36;;;;;;;1.67;1.23;;;11.30;99.90;;;10.68;60.15;101250.94;4966824;28;99640;-55
2023/01/30 08:20:03;;;;;;;1.43;1.00;;;11.10;99.90;;;10.60;60.96;101247.66;4968591;28;97132;-51
2023/01/30 08:22:29;;;;;;;2.47;1.30;;;11.00;99.90;;;10.51;61.93;101251.41;4968232;28;97664;-55
2023/01/30 08:24:54;;;;;;;1.43;0.80;;;10.90;99.90;;;10.48;61.19;101263.81;4968419;28;104633;-54
2023/01/30 08:27:20;;;;;;;3.87;1.67;;;10.80;99.90;;;10.12;63.69;101251.44;4964707;28;116099;-54
2023/01/30 08:29:46;;;;;;;5.53;1.93;;;10.60;99.90;;;10.08;63.13;101256.84;4969718;28;97547;-56
2023/01/30 08:32:12;;;;;;;2.57;1.60;;;10.50;99.90;;;9.93;64.85;101273.88;4950640;28;98015;-57
2023/01/30 08:34:38;;;;;;;3.57;1.87;;;10.40;99.90;;;9.87;64.92;101265.25;4967750;28;96690;-53
2023/01/30 08:37:04;;;;;;;2.07;1.30;;;10.30;99.90;;;9.89;63.50;101268.72;4950817;28;111905;-54
2023/01/30 08:39:30;;;;;;;2.50;1.30;;;10.30;99.90;;;9.74;65.14;101262.91;4963142;28;97315;-55
2023/01/30 08:41:56;;;;;;;2.73;1.37;;;10.30;99.90;;;9.72;64.60;101255.94;4969680;28;97272;-54
2023/01/30 08:44:21;;;;;;;2.50;1.50;;;10.20;99.90;;;9.67;63.76;101258.66;4972707;28;97418;-53
2023/01/30 08:46:47;;;;;;;2.30;1.40;;;10.10;99.90;;;9.79;63.30;101271.56;4976332;28;103079;-55
2023/01/30 08:49:13;;;;;;;2.47;1.30;;;10.20;99.90;;;9.70;65.21;101263.03;4962298;28;108584;-56
2023/01/30 08:51:39;;;;;;;7.00;2.10;;;10.20;99.90;;;9.74;65.01;101270.81;4974383;28;97190;-56
2023/01/30 08:54:08;;;;;;;1.53;1.13;;;10.20;99.90;;;9.81;63.12;101267.13;4966061;28;97855;-55
2023/01/30 08:56:34;;;;;;;4.10;1.73;;;10.20;99.90;;;9.71;65.58;101265.63;4965603;28;97168;-53
2023/01/30 08:59:00;;;;;;;4.77;1.90;;;10.20;99.90;;;9.61;66.01;101266.72;4964644;28;98497;-56
2023/01/30 09:01:26;;;;;;;4.80;1.77;;;10.20;99.90;;;9.59;65.87;101283.47;4969245;28;98222;-56
2023/01/30 09:03:52;;;;;;;2.47;1.33;;;10.20;99.90;;;9.38;67.05;101292.66;4972174;28;97415;-53
2023/01/30 09:06:18;;;;;;;1.63;1.27;;;10.00;99.90;;;9.32;66.30;101282.25;4969335;28;97956;-54
2023/01/30 09:08:43;;;;;;;3.77;1.90;;;10.00;99.90;;;9.32;66.99;101284.91;4971655;28;98195;-58
2023/01/30 09:11:11;;;;;;;4.67;1.83;;;9.90;99.90;;;9.19;67.27;101300.06;4971762;28;97290;-54
2023/01/30 09:13:42;;;;;;;3.93;1.67;;;9.90;99.90;;;9.15;67.67;101295.78;4968963;28;97136;-53
2023/01/30 09:16:10;;;;;;;5.17;2.27;;;9.80;99.90;;;9.14;68.02;101302.78;4955649;28;98575;-56
2023/01/30 09:18:41;;;;;;;2.60;1.83;;;9.70;99.90;;;9.17;67.61;101300.09;4969502;28;96930;-56
2023/01/30 09:21:08;;;;;;;3.00;1.50;;;9.70;99.90;;;9.17;67.60;101297.47;4973003;28;96671;-54
2023/01/30 09:23:35;;;;;;;2.83;1.23;;;9.70;99.90;;;9.14;66.63;101273.84;4956437;28;97644;-54
2023/01/30 09:26:02;;;;;;;2.30;1.43;;;9.70;99.90;;;9.05;67.19;101276.66;4976062;28;98002;-55
2023/01/30 09:28:28;;;;;;;2.53;0.77;;;9.70;99.90;;;8.94;65.63;101258.44;4977747;28;97932;-55
2023/01/30 09:30:58;;;;;;;1.97;1.53;;;9.60;99.90;;;9.10;65.56;101261.63;4955380;28;98038;-58
2023/01/30 09:33:25;;;;;;;1.53;0.77;;;9.80;99.90;;;8.95;65.86;101273.31;4957265;28;96956;-56
2023/01/30 09:35:51;;;;;;;4.30;1.30;;;9.70;99.90;;;9.01;65.51;101272.34;4971649;28;97261;-51
2023/01/30 09:38:17;;;;;;;2.03;1.20;;;9.70;99.90;;;9.08;65.64;101273.94;4948754;28;97178;-56
2023/01/30 09:41:23;;;;;;;0.90;0.60;;;9.70;99.90;;;9.09;65.75;101283.56;4956011;28;97147;-56
2023/01/30 09:44:12;;;;;;;2.20;1.37;;;9.70;99.90;;;9.13;65.04;101282.63;4962623;28;97420;-54
2023/01/30 09:46:49;;;;;;;2.00;0.73;;;9.70;99.90;;;8.91;64.94;101292.69;4970561;28;101230;-56
2023/01/30 09:50:02;;;;;;;3.13;0.83;;;9.70;99.90;;;9.02;64.26;101297.75;4967031;28;97393;-55
2023/01/30 09:53:10;;;;;;;1.27;0.50;;;9.70;99.90;;;9.01;64.17;101288.13;4970634;28;97183;-56
2023/01/30 09:55:42;;;;;;;1.30;0.77;;;9.60;99.90;;;9.11;63.09;101280.91;4971525;28;97060;-55
2023/01/30 09:58:19;;;;;;;1.90;0.60;;;9.70;99.90;;;9.10;62.64;101302.88;4971245;28;97274;-56
2023/01/30 10:00:48;;;;;;;9.53;1.30;;;9.80;99.90;;;9.10;62.98;101318.66;4966456;28;101215;-57
2023/01/30 10:03:18;;;;;;;3.10;0.77;;;9.80;99.90;;;9.04;63.03;101309.13;4976752;28;99074;-55
2023/01/30 10:05:52;;;;;;;4.00;1.17;;;9.80;99.90;;;8.98;62.37;101298.72;4970584;28;97294;-54
2023/01/30 10:09:05;;;;;;;1.20;1.10;;;9.70;99.90;;;9.18;62.64;101295.69;4969395;28;97848;-54
2023/01/30 10:12:01;;;;;;;6.87;1.17;;;9.70;99.90;;;8.81;61.88;101327.09;4970041;28;98178;-56
2023/01/30 10:14:54;;;;;;;2.93;0.93;;;9.60;99.90;;;8.90;62.19;101309.38;4966908;28;97465;-53
2023/01/30 10:17:48;;;;;;;3.73;1.17;;;9.60;99.90;;;9.09;61.83;101312.53;4951716;28;97950;-57
2023/01/30 10:20:36;;;;;;;0.93;0.63;;;9.70;99.90;;;9.15;61.66;101312.44;4918524;28;99326;-56
2023/01/30 10:23:21;;;;;;;0.63;0.40;;;9.70;99.90;;;9.05;61.33;101321.38;4941222;28;97716;-54
2023/01/30 10:25:52;;;;;;;1.83;1.27;;;9.70;99.90;;;9.07;61.25;101324.00;4921895;28;98131;-57
2023/01/30 10:28:27;;;;;;;0.70;0.67;;;9.70;99.90;;;9.02;59.98;101325.84;4925450;28;97358;-56
2023/01/30 10:31:03;;;;;;;0.80;0.57;;;9.60;99.90;;;8.59;60.21;101347.66;4943320;28;97607;-56
2023/01/30 10:33:49;;;;;;;10.13;0.77;;;9.40;99.90;;;8.76;60.47;101331.56;4941749;28;97804;-56
2023/01/30 10:36:34;;;;;;;2.33;0.70;;;9.40;99.90;;;8.82;59.73;101323.56;4934735;28;100872;-56
2023/01/30 10:39:03;;;;;;;5.63;0.80;;;9.40;99.90;;;8.81;60.04;101324.44;4931106;28;97321;-56
2023/01/30 10:41:36;;;;;;;2.90;0.53;;;9.50;99.90;;;8.70;60.08;101339.59;4929631;28;101122;-55